createdAt,value
2019-04-05T00:02:09.298Z,96401.79
2019-04-05T00:04:38.719Z,96402.63
2019-04-05T00:07:09.136Z,96403.86
2019-04-05T00:09:40.686Z,96392.42
2019-04-05T00:12:10.290Z,96398.03
2019-04-05T00:14:40.820Z,96398.03
2019-04-05T00:17:11.185Z,96398.88
2019-04-05T00:19:41.559Z,96407.03
2019-04-05T00:22:11.888Z,96413.59
2019-04-05T00:24:42.257Z,96425.11
2019-04-05T00:27:11.667Z,96425.54
2019-04-05T00:29:40.457Z,96422.55
2019-04-05T00:32:09.941Z,96428.39
2019-04-05T00:34:40.747Z,96432.45
2019-04-05T00:37:11.162Z,96436.18
2019-04-05T00:39:40.561Z,96434.58
2019-04-05T00:42:09.395Z,96438.06
2019-04-05T00:44:39.696Z,96446.08
2019-04-05T00:47:10.267Z,96453.14
2019-04-05T00:49:39.755Z,96448.81
2019-04-05T00:52:09.151Z,96445.58
2019-04-05T00:54:39.711Z,96447.73
2019-04-05T00:57:09.113Z,96455.61
2019-04-05T00:59:39.441Z,96457.55
2019-04-05T01:02:09.778Z,96456.69
2019-04-05T01:04:39.139Z,96451.55
2019-04-05T01:07:09.751Z,96450.82
2019-04-05T01:09:39.264Z,96444.83
2019-04-05T01:12:09.735Z,96448.44
2019-04-05T01:14:39.247Z,96451.81
2019-04-05T01:17:09.975Z,96456.43
2019-04-05T01:19:43.217Z,96461.12
2019-04-05T01:22:15.469Z,96470.17
2019-04-05T01:24:48.753Z,96462.99
2019-04-05T01:27:19.851Z,96460.10
2019-04-05T01:29:50.422Z,96458.95
2019-04-05T01:32:21.166Z,96468.06
2019-04-05T01:34:51.507Z,96464.25
2019-04-05T01:37:23.913Z,96462.93
2019-04-05T01:39:56.515Z,96463.23
2019-04-05T01:42:27.632Z,96461.70
2019-04-05T01:44:58.790Z,96464.93
2019-04-05T01:47:28.312Z,96467.31
2019-04-05T01:49:57.728Z,96474.11
2019-04-05T01:52:27.251Z,96472.44
2019-04-05T01:54:57.694Z,96474.38
2019-04-05T01:57:27.100Z,96485.84
2019-04-05T01:59:56.526Z,96481.63
2019-04-05T02:02:26.028Z,96479.88
2019-04-05T02:04:56.759Z,96473.22
2019-04-05T02:07:27.321Z,96478.71
2019-04-05T02:09:58.130Z,96473.48
2019-04-05T02:12:27.619Z,96469.59
2019-04-05T02:14:56.447Z,96477.84
2019-04-05T02:17:26.905Z,96482.13
2019-04-05T02:19:56.469Z,96484.80
2019-04-05T02:22:26.002Z,96477.41
2019-04-05T02:24:58.381Z,96469.63
2019-04-05T02:27:28.917Z,96475.96
2019-04-05T02:29:59.285Z,96475.62
2019-04-05T02:32:28.881Z,96473.24
2019-04-05T02:34:58.293Z,96473.01
2019-04-05T02:37:28.845Z,96473.58
2019-04-05T02:39:58.265Z,96483.27
2019-04-05T02:42:30.390Z,96481.31
2019-04-05T02:45:01.426Z,96488.63
2019-04-05T02:47:31.668Z,96486.18
2019-04-05T02:50:02.337Z,96494.05
2019-04-05T02:52:32.156Z,96491.30
2019-04-05T02:55:02.978Z,96488.86
2019-04-05T02:57:33.235Z,96493.75
2019-04-05T03:00:04.003Z,96501.12
2019-04-05T03:02:34.583Z,96508.86
2019-04-05T03:05:04.395Z,96506.77
2019-04-05T03:07:34.964Z,96510.32
2019-04-05T03:10:08.512Z,96510.73
2019-04-05T03:12:38.830Z,96514.15
2019-04-05T03:15:10.290Z,96517.70
2019-04-05T03:17:41.183Z,96507.98
2019-04-05T03:20:12.005Z,96519.13
2019-04-05T03:22:42.546Z,96510.09
2019-04-05T03:25:12.252Z,96509.06
2019-04-05T03:27:41.663Z,96509.21
2019-04-05T03:30:11.495Z,96515.36
2019-04-05T03:32:41.970Z,96508.23
2019-04-05T03:35:12.480Z,96516.17
2019-04-05T03:37:43.543Z,96521.03
2019-04-05T03:40:13.321Z,96519.58
2019-04-05T03:42:44.415Z,96522.03
2019-04-05T03:45:14.031Z,96519.58
2019-04-05T03:47:43.658Z,96515.87
2019-04-05T03:50:13.635Z,96518.92
2019-04-05T03:52:44.142Z,96519.13
2019-04-05T03:55:13.084Z,96522.41
2019-04-05T03:57:43.616Z,96518.08
2019-04-05T04:00:16.199Z,96524.34
2019-04-05T04:02:46.728Z,96524.78
2019-04-05T04:05:17.441Z,96514.30
2019-04-05T04:07:49.192Z,96521.80
2019-04-05T04:10:22.669Z,96522.23
2019-04-05T04:12:53.133Z,96518.35
2019-04-05T04:15:22.607Z,96528.69
2019-04-05T04:17:52.591Z,96528.96
2019-04-05T04:20:41.180Z,96524.13
2019-04-05T04:23:12.790Z,96527.30
2019-04-05T04:25:44.487Z,96531.56
2019-04-05T04:28:15.532Z,96529.33
2019-04-05T04:30:47.399Z,96531.51
2019-04-05T04:33:18.254Z,96537.84
2019-04-05T04:35:47.823Z,96532.00
2019-04-05T04:38:19.096Z,96530.63
2019-04-05T04:40:50.050Z,96530.83
2019-04-05T04:43:19.770Z,96536.95
2019-04-05T04:45:50.457Z,96542.11
2019-04-05T04:48:20.184Z,96537.77
2019-04-05T04:50:51.259Z,96538.05
2019-04-05T04:53:22.199Z,96539.94
2019-04-05T04:55:51.668Z,96538.69
2019-04-05T04:58:23.206Z,96537.32
2019-04-05T05:00:55.904Z,96530.28
2019-04-05T05:03:25.483Z,96534.90
2019-04-05T05:05:55.473Z,96534.03
2019-04-05T05:08:26.181Z,96546.09
2019-04-05T05:10:55.690Z,96538.14
2019-04-05T05:13:24.754Z,96538.52
2019-04-05T05:15:57.404Z,96538.81
2019-04-05T05:18:26.875Z,96538.88
2019-04-05T05:20:57.372Z,96546.00
2019-04-05T05:23:29.497Z,96548.45
2019-04-05T05:25:59.895Z,96550.91
2019-04-05T05:28:32.632Z,96549.45
2019-04-05T05:31:02.232Z,96547.14
2019-04-05T05:33:32.057Z,96560.61
2019-04-05T05:36:01.163Z,96559.59
2019-04-05T05:38:31.637Z,96565.38
2019-04-05T05:41:01.198Z,96556.63
2019-04-05T05:43:29.978Z,96551.64
2019-04-05T05:46:02.474Z,96555.67
2019-04-05T05:48:35.072Z,96558.66
2019-04-05T05:51:05.618Z,96564.48
2019-04-05T05:53:34.988Z,96556.73
2019-04-05T05:56:04.537Z,96545.59
2019-04-05T05:58:34.918Z,96555.11
2019-04-05T06:01:05.467Z,96563.24
2019-04-05T06:03:34.841Z,96565.29
2019-04-05T06:06:04.941Z,96569.34
2019-04-05T06:08:37.271Z,96572.73
2019-04-05T06:11:06.645Z,96566.93
2019-04-05T06:13:38.205Z,96571.73
2019-04-05T06:16:07.597Z,96571.16
2019-04-05T06:18:37.278Z,96563.91
2019-04-05T06:21:07.626Z,96555.23
2019-04-05T06:23:37.032Z,96558.98
2019-04-05T06:26:07.501Z,96563.11
2019-04-05T06:28:38.620Z,96559.42
2019-04-05T06:31:09.155Z,96552.98
2019-04-05T06:33:39.536Z,96556.73
2019-04-05T06:36:12.045Z,96552.85
2019-04-05T06:38:42.462Z,96560.47
2019-04-05T06:41:14.946Z,96569.42
2019-04-05T06:43:45.294Z,96567.53
2019-04-05T06:46:14.653Z,96557.14
2019-04-05T06:48:45.073Z,96562.33
2019-04-05T06:51:15.541Z,96557.33
2019-04-05T06:53:44.930Z,96556.47
2019-04-05T06:56:15.400Z,96558.86
2019-04-05T06:58:46.457Z,96557.80
2019-04-05T07:01:18.698Z,96556.74
2019-04-05T07:03:48.119Z,96559.75
2019-04-05T07:06:17.541Z,96562.56
2019-04-05T07:08:53.737Z,96559.84
2019-04-05T07:11:19.904Z,96556.37
2019-04-05T07:13:50.449Z,96565.42
2019-04-05T07:16:20.870Z,96568.60
2019-04-05T07:18:50.314Z,96564.72
2019-04-05T07:21:20.655Z,96566.75
2019-04-05T07:23:50.122Z,96567.59
2019-04-05T07:26:21.104Z,96569.08
2019-04-05T07:28:51.608Z,96567.23
2019-04-05T07:31:21.013Z,96566.61
2019-04-05T07:33:51.407Z,96570.97
2019-04-05T07:36:21.884Z,96573.03
2019-04-05T07:38:51.379Z,96575.61
2019-04-05T07:41:21.858Z,96574.75
2019-04-05T07:43:52.271Z,96566.84
2019-04-05T07:46:22.669Z,96575.30
2019-04-05T07:48:52.081Z,96577.22
2019-04-05T07:51:22.952Z,96578.77
2019-04-05T07:53:52.438Z,96584.30
2019-04-05T07:56:23.164Z,96581.59
2019-04-05T07:58:53.809Z,96579.82
2019-04-05T08:01:23.268Z,96578.30
2019-04-05T08:03:52.744Z,96582.53
2019-04-05T08:06:23.210Z,96588.91
2019-04-05T08:09:02.799Z,96594.27
2019-04-05T08:11:32.645Z,96592.13
2019-04-05T08:14:04.108Z,96588.57
2019-04-05T08:16:33.700Z,96593.77
2019-04-05T08:19:04.239Z,96593.45
2019-04-05T08:21:34.641Z,96593.56
2019-04-05T08:24:05.232Z,96599.30
2019-04-05T08:26:34.645Z,96598.44
2019-04-05T08:29:05.120Z,96596.44
2019-04-05T08:31:35.473Z,96608.37
2019-04-05T08:34:06.032Z,96607.10
2019-04-05T08:36:35.426Z,96611.35
2019-04-05T08:39:08.497Z,96606.62
2019-04-05T08:41:38.917Z,96611.05
2019-04-05T08:44:08.387Z,96610.17
2019-04-05T08:46:37.777Z,96610.99
2019-04-05T08:49:10.881Z,96615.22
2019-04-05T08:51:40.538Z,96621.82
2019-04-05T08:54:12.918Z,96621.27
2019-04-05T08:56:43.320Z,96615.10
2019-04-05T08:59:13.814Z,96617.10
2019-04-05T09:01:44.251Z,96615.16
2019-04-05T09:04:13.642Z,96611.95
2019-04-05T09:06:43.970Z,96612.38
2019-04-05T09:09:13.484Z,96609.87
2019-04-05T09:11:42.876Z,96610.02
2019-04-05T09:14:13.327Z,96611.44
2019-04-05T09:16:43.746Z,96608.08
2019-04-05T09:19:22.984Z,96610.74
2019-04-05T09:21:44.151Z,96612.36
2019-04-05T09:24:14.133Z,96612.90
2019-04-05T09:26:44.427Z,96614.34
2019-04-05T09:29:12.966Z,96612.94
2019-04-05T09:31:41.730Z,96618.30
2019-04-05T09:34:11.192Z,96615.93
2019-04-05T09:36:43.023Z,96611.77
2019-04-05T09:39:15.660Z,96619.25
2019-04-05T09:41:43.938Z,96617.63
2019-04-05T09:44:14.550Z,96618.72
2019-04-05T09:46:47.232Z,96620.19
2019-04-05T09:49:15.311Z,96619.55
2019-04-05T09:51:48.694Z,96621.08
2019-04-05T09:54:18.178Z,96626.43
2019-04-05T09:56:48.570Z,96626.78
2019-04-05T09:59:18.978Z,96619.05
2019-04-05T10:01:48.381Z,96619.88
2019-04-05T10:04:17.841Z,96617.79
2019-04-05T10:06:48.220Z,96611.27
2019-04-05T10:09:17.623Z,96617.70
2019-04-05T10:11:47.143Z,96618.56
2019-04-05T10:14:17.958Z,96609.58
2019-04-05T10:16:48.363Z,96607.50
2019-04-05T10:19:17.795Z,96601.67
2019-04-05T10:21:47.247Z,96605.23
2019-04-05T10:24:16.595Z,96593.78
2019-04-05T10:26:46.143Z,96597.45
2019-04-05T10:29:16.491Z,96598.02
2019-04-05T10:31:48.439Z,96594.85
2019-04-05T10:34:19.021Z,96591.72
2019-04-05T10:36:48.524Z,96593.28
2019-04-05T10:39:17.849Z,96593.80
2019-04-05T10:42:02.895Z,96598.27
2019-04-05T10:44:21.406Z,96606.95
2019-04-05T10:46:50.836Z,96604.14
2019-04-05T10:49:19.667Z,96603.09
2019-04-05T10:51:52.055Z,96602.13
2019-04-05T10:54:21.576Z,96600.67
2019-04-05T10:56:50.992Z,96597.13
2019-04-05T10:59:19.722Z,96599.33
2019-04-05T11:01:49.185Z,96596.33
2019-04-05T11:04:18.590Z,96591.20
2019-04-05T11:06:50.950Z,96594.41
2019-04-05T11:09:21.323Z,96582.72
2019-04-05T11:11:50.827Z,96582.38
2019-04-05T11:14:20.228Z,96579.25
2019-04-05T11:16:58.188Z,96584.16
2019-04-05T11:19:23.896Z,96577.72
2019-04-05T11:21:54.258Z,96576.80
2019-04-05T11:24:23.731Z,96577.66
2019-04-05T11:26:52.613Z,96576.06
2019-04-05T11:29:21.983Z,96570.30
2019-04-05T11:31:57.215Z,96567.52
2019-04-05T11:34:27.484Z,96562.06
2019-04-05T11:36:57.624Z,96554.23
2019-04-05T11:39:27.900Z,96557.47
2019-04-05T11:41:58.961Z,96549.48
2019-04-05T11:44:31.793Z,96549.03
2019-04-05T11:47:01.552Z,96543.73
2019-04-05T11:49:32.428Z,96542.89
2019-04-05T11:52:02.839Z,96550.17
2019-04-05T11:54:33.203Z,96547.53
2019-04-05T11:57:04.583Z,96546.91
2019-04-05T11:59:34.171Z,96543.66
2019-04-05T12:02:20.243Z,96545.45
2019-04-05T12:04:50.660Z,96541.48
2019-04-05T12:07:24.001Z,96539.91
2019-04-05T12:09:53.622Z,96539.13
2019-04-05T12:12:25.568Z,96540.20
2019-04-05T12:14:56.300Z,96542.53
2019-04-05T12:17:26.941Z,96541.09
2019-04-05T12:19:56.365Z,96538.69
2019-04-05T12:22:26.918Z,96530.48
2019-04-05T12:24:57.432Z,96529.89
2019-04-05T12:27:26.236Z,96530.75
2019-04-05T12:29:55.635Z,96523.21
2019-04-05T12:32:33.672Z,96516.02
2019-04-05T12:35:03.644Z,96514.83
2019-04-05T12:37:49.155Z,96516.79
2019-04-05T12:40:11.026Z,96521.94
2019-04-05T12:42:43.513Z,96510.80
2019-04-05T12:45:14.677Z,96506.98
2019-04-05T12:47:45.726Z,96499.08
2019-04-05T12:50:17.094Z,96502.76
2019-04-05T12:52:47.554Z,96498.32
2019-04-05T12:55:18.378Z,96490.77
2019-04-05T12:57:48.525Z,96489.89
2019-04-05T13:00:20.565Z,96482.00
2019-04-05T13:02:50.899Z,96485.16
2019-04-05T13:05:21.869Z,96484.78
2019-04-05T13:07:53.398Z,96485.17
2019-04-05T13:10:26.158Z,96481.31
2019-04-05T13:12:58.226Z,96482.97
2019-04-05T13:15:28.626Z,96486.47
2019-04-05T13:18:00.306Z,96484.61
2019-04-05T13:20:30.793Z,96473.16
2019-04-05T13:23:04.295Z,96478.89
2019-04-05T13:25:33.690Z,96475.31
2019-04-05T13:28:12.698Z,96476.98
2019-04-05T13:30:36.916Z,96467.92
2019-04-05T13:33:06.421Z,96465.01
2019-04-05T13:35:36.892Z,96461.56
2019-04-05T13:38:07.248Z,96458.38
2019-04-05T13:40:36.667Z,96453.17
2019-04-05T13:43:07.135Z,96453.07
2019-04-05T13:45:38.802Z,96455.32
2019-04-05T13:48:09.129Z,96446.80
2019-04-05T13:50:41.414Z,96451.28
2019-04-05T13:53:11.334Z,96444.61
2019-04-05T13:55:41.434Z,96442.97
2019-04-05T13:58:12.066Z,96444.34
2019-04-05T14:00:42.618Z,96436.55
2019-04-05T14:03:12.014Z,96437.00
2019-04-05T14:05:42.104Z,96435.08
2019-04-05T14:08:11.538Z,96429.41
2019-04-05T14:10:41.940Z,96433.27
2019-04-05T14:13:12.444Z,96434.63
2019-04-05T14:15:43.158Z,96440.56
2019-04-05T14:18:15.242Z,96433.41
2019-04-05T14:20:45.142Z,96434.75
2019-04-05T14:23:14.533Z,96431.94
2019-04-05T14:25:44.880Z,96432.89
2019-04-05T14:28:17.175Z,96424.69
2019-04-05T14:30:47.694Z,96426.81
2019-04-05T14:33:18.092Z,96418.87
2019-04-05T14:35:48.507Z,96420.91
2019-04-05T14:38:17.962Z,96418.28
2019-04-05T14:40:47.465Z,96413.81
2019-04-05T14:43:16.924Z,96416.36
2019-04-05T14:45:46.413Z,96415.98
2019-04-05T14:48:18.745Z,96424.48
2019-04-05T14:50:49.252Z,96417.39
2019-04-05T14:53:19.658Z,96422.67
2019-04-05T14:55:49.085Z,96423.61
2019-04-05T14:58:21.521Z,96425.45
2019-04-05T15:00:50.901Z,96422.45
2019-04-05T15:03:21.621Z,96413.41
2019-04-05T15:05:53.394Z,96411.08
2019-04-05T15:08:26.270Z,96402.08
2019-04-05T15:10:57.286Z,96410.02
2019-04-05T15:13:27.818Z,96405.41
2019-04-05T15:15:58.445Z,96406.00
2019-04-05T15:18:29.434Z,96401.10
2019-04-05T15:20:59.971Z,96401.48
2019-04-05T15:23:29.603Z,96404.80
2019-04-05T15:26:01.396Z,96406.70
2019-04-05T15:28:33.802Z,96404.46
2019-04-05T15:31:05.201Z,96399.75
2019-04-05T15:33:35.653Z,96402.09
2019-04-05T15:36:06.486Z,96398.52
2019-04-05T15:38:35.266Z,96398.64
2019-04-05T15:41:05.879Z,96398.87
2019-04-05T15:43:36.340Z,96398.34
2019-04-05T15:46:07.057Z,96395.47
2019-04-05T15:48:38.616Z,96398.80
2019-04-05T15:51:09.265Z,96400.17
2019-04-05T15:53:37.752Z,96399.77
2019-04-05T15:56:06.278Z,96399.01
2019-04-05T15:58:38.776Z,96398.23
2019-04-05T16:01:09.290Z,96399.01
2019-04-05T16:03:38.796Z,96398.63
2019-04-05T16:06:09.795Z,96392.68
2019-04-05T16:08:39.182Z,96398.83
2019-04-05T16:11:08.824Z,96398.62
2019-04-05T16:13:38.232Z,96393.48
2019-04-05T16:16:07.752Z,96394.08
2019-04-05T16:18:37.987Z,96395.48
2019-04-05T16:21:07.357Z,96393.89
2019-04-05T16:23:37.776Z,96390.20
2019-04-05T16:26:08.587Z,96396.33
2019-04-05T16:28:40.869Z,96398.70
2019-04-05T16:31:11.536Z,96395.55
2019-04-05T16:33:40.896Z,96395.17
2019-04-05T16:36:14.436Z,96394.60
2019-04-05T16:38:46.827Z,96388.06
2019-04-05T16:41:17.201Z,96388.66
2019-04-05T16:43:47.568Z,96384.91
2019-04-05T16:46:19.058Z,96387.68
2019-04-05T16:48:49.619Z,96387.30
2019-04-05T16:51:19.952Z,96377.81
2019-04-05T16:54:04.088Z,96385.15
2019-04-05T16:56:33.877Z,96387.54
2019-04-05T16:59:03.300Z,96382.57
2019-04-05T17:01:33.552Z,96375.09
2019-04-05T17:04:04.058Z,96372.11
2019-04-05T17:06:34.454Z,96375.48
2019-04-05T17:09:04.910Z,96370.95
2019-04-05T17:11:34.154Z,96376.72
2019-04-05T17:14:04.618Z,96376.91
2019-04-05T17:16:33.978Z,96375.93
2019-04-05T17:19:04.489Z,96378.49
2019-04-05T17:21:34.998Z,96375.55
2019-04-05T17:24:04.476Z,96372.99
2019-04-05T17:26:34.090Z,96373.01
2019-04-05T17:29:03.509Z,96370.81
2019-04-05T17:31:32.933Z,96374.97
2019-04-05T17:34:03.377Z,96378.51
2019-04-05T17:36:34.419Z,96381.45
2019-04-05T17:39:04.189Z,96384.62
2019-04-05T17:41:34.588Z,96379.30
2019-04-05T17:44:05.202Z,96382.83
2019-04-05T17:46:36.390Z,96386.98
2019-04-05T17:49:07.268Z,96391.72
2019-04-05T17:51:38.511Z,96386.39
2019-04-05T17:54:09.010Z,96392.91
2019-04-05T17:56:40.798Z,96397.46
2019-04-05T17:59:13.318Z,96400.81
2019-04-05T18:01:42.116Z,96396.08
2019-04-05T18:04:11.788Z,96405.77
2019-04-05T18:06:42.409Z,96403.00
2019-04-05T18:09:20.018Z,96403.41
2019-04-05T18:11:49.743Z,96397.23
2019-04-05T18:14:22.187Z,96402.93
2019-04-05T18:16:54.260Z,96404.70
2019-04-05T18:19:23.739Z,96405.66
2019-04-05T18:21:54.367Z,96409.40
2019-04-05T18:24:24.959Z,96411.16
2019-04-05T18:26:54.398Z,96414.27
2019-04-05T18:29:31.199Z,96417.81
2019-04-05T18:32:05.258Z,96423.91
2019-04-05T18:34:35.679Z,96419.75
2019-04-05T18:37:07.443Z,96416.98
2019-04-05T18:39:38.888Z,96412.81
2019-04-05T18:42:13.044Z,96415.16
2019-04-05T18:44:42.618Z,96427.17
2019-04-05T18:47:15.111Z,96431.86
2019-04-05T18:49:45.641Z,96443.32
2019-04-05T18:52:16.459Z,96457.06
2019-04-05T18:54:47.997Z,96463.00
2019-04-05T18:57:23.416Z,96463.19
2019-04-05T18:59:52.803Z,96466.95
2019-04-05T19:02:23.567Z,96469.91
2019-04-05T19:04:53.978Z,96481.92
2019-04-05T19:07:23.603Z,96480.91
2019-04-05T19:09:54.298Z,96476.38
2019-04-05T19:12:25.453Z,96485.47
2019-04-05T19:14:57.666Z,96487.55
2019-04-05T19:17:28.027Z,96484.77
2019-04-05T19:19:58.053Z,96492.64
2019-04-05T19:22:28.036Z,96486.13
2019-04-05T19:24:57.359Z,96492.03
2019-04-05T19:27:27.867Z,96491.06
2019-04-05T19:29:57.336Z,96491.04
2019-04-05T19:50:13.336Z,96487.06
2019-04-05T19:52:43.722Z,96480.27
2019-04-05T19:55:14.443Z,96487.89
2019-04-05T19:57:43.851Z,96490.18
2019-04-05T20:00:12.960Z,96492.39
2019-04-05T20:02:42.543Z,96496.66
2019-04-05T20:05:12.151Z,96494.87
2019-04-05T20:07:42.620Z,96495.67
2019-04-05T20:10:13.469Z,96495.64
2019-04-05T20:12:44.061Z,96499.62
2019-04-05T20:15:14.147Z,96494.25
2019-04-05T20:17:46.315Z,96499.01
2019-04-05T20:20:15.965Z,96505.10
2019-04-05T20:22:45.360Z,96503.69
2019-04-05T20:25:15.872Z,96498.81
2019-04-05T20:27:46.391Z,96501.34
2019-04-05T20:30:16.001Z,96500.09
2019-04-05T20:32:45.430Z,96509.40
2019-04-05T20:35:14.888Z,96512.92
2019-04-05T20:37:45.397Z,96506.25
2019-04-05T20:40:14.784Z,96511.39
2019-04-05T20:42:45.079Z,96513.70
2019-04-05T20:45:14.667Z,96515.27
2019-04-05T20:47:45.021Z,96513.15
2019-04-05T20:50:15.635Z,96514.11
2019-04-05T20:52:47.923Z,96520.02
2019-04-05T20:55:17.402Z,96514.46
2019-04-05T20:57:47.761Z,96518.41
2019-04-05T21:00:19.505Z,96516.34
2019-04-05T21:02:49.810Z,96513.13
2019-04-05T21:05:25.302Z,96514.12
2019-04-05T21:07:51.541Z,96516.46
2019-04-05T21:10:21.011Z,96523.58
2019-04-05T21:12:51.375Z,96516.64
2019-04-05T21:15:20.780Z,96522.73
2019-04-05T21:17:50.313Z,96522.02
2019-04-05T21:20:20.967Z,96529.41
2019-04-05T21:22:50.290Z,96524.20
2019-04-05T21:25:20.697Z,96528.87
2019-04-05T21:27:53.181Z,96525.61
2019-04-05T21:30:25.988Z,96532.47
2019-04-05T21:32:55.362Z,96533.77
2019-04-05T21:35:25.714Z,96529.45
2019-04-05T21:37:56.184Z,96523.97
2019-04-05T21:40:25.568Z,96523.73
2019-04-05T21:42:56.308Z,96529.30
2019-04-05T21:45:27.440Z,96535.81
2019-04-05T21:47:57.744Z,96532.89
2019-04-05T21:50:27.162Z,96530.48
2019-04-05T21:52:57.526Z,96531.47
2019-04-05T21:55:27.138Z,96536.03
2019-04-05T21:57:56.593Z,96542.20
2019-04-05T22:00:35.024Z,96545.96
2019-04-05T22:03:05.437Z,96556.87
2019-04-05T22:05:36.912Z,96554.16
2019-04-05T22:08:05.734Z,96556.11
2019-04-05T22:10:37.843Z,96555.66
2019-04-05T22:13:07.289Z,96557.64
2019-04-05T22:15:37.994Z,96556.61
2019-04-05T22:18:07.611Z,96561.17
2019-04-05T22:20:37.037Z,96561.17
2019-04-05T22:23:06.545Z,96562.86
2019-04-05T22:25:38.161Z,96566.41
2019-04-05T22:28:07.556Z,96571.47
2019-04-05T22:30:38.244Z,96564.73
2019-04-05T22:33:07.639Z,96564.69
2019-04-05T22:35:37.057Z,96561.20
2019-04-05T22:38:07.448Z,96561.25
2019-04-05T22:40:37.866Z,96555.80
2019-04-05T22:43:07.500Z,96562.65
2019-04-05T22:45:40.093Z,96560.42
2019-04-05T22:48:11.399Z,96563.76
2019-04-05T22:50:40.806Z,96566.88
2019-04-05T22:53:10.327Z,96569.30
2019-04-05T22:55:41.616Z,96568.69
2019-04-05T22:58:11.854Z,96571.17
2019-04-05T23:00:41.325Z,96572.59
2019-04-05T23:03:11.932Z,96567.84
2019-04-05T23:05:41.302Z,96570.30
2019-04-05T23:08:11.886Z,96571.26
2019-04-05T23:10:42.351Z,96574.28
2019-04-05T23:13:12.686Z,96574.69
2019-04-05T23:15:42.288Z,96571.00
2019-04-05T23:18:12.658Z,96585.22
2019-04-05T23:20:42.173Z,96571.52
2019-04-05T23:23:12.564Z,96576.81
2019-04-05T23:25:43.075Z,96573.09
2019-04-05T23:28:12.498Z,96572.23
2019-04-05T23:30:45.228Z,96573.43
2019-04-05T23:33:14.649Z,96579.59
2019-04-05T23:35:45.117Z,96578.80
2019-04-05T23:38:14.604Z,96591.09
2019-04-05T23:40:44.986Z,96588.62
2019-04-05T23:43:14.602Z,96590.30
2019-04-05T23:45:44.880Z,96593.55
2019-04-05T23:48:14.328Z,96589.59
2019-04-05T23:50:44.729Z,96592.55
2019-04-05T23:53:15.134Z,96590.48
2019-04-05T23:55:45.540Z,96595.61
2019-04-05T23:58:15.116Z,96601.61
